Time;durP1;ratioP1;P1;durP2;ratioP2;P2;SDS_P1;SDS_P2;PMS_P1;PMS_P2;Temp;Humidity;BMP_temperature;BMP_pressure;BME280_temperature;BME280_humidity;BME280_pressure;Samples;Min_cycle;Max_cycle;Signal;HPM_P1;HPM_P2
2022/01/04 00:01:03;;;;;;;1.83;0.80;;;16.40;56.60;;;;;;5059544;28;20386;-36
2022/01/04 00:03:30;;;;;;;1.58;0.75;;;16.40;56.50;;;;;;5059241;28;20531;-37
2022/01/04 00:05:56;;;;;;;1.60;0.80;;;16.40;56.40;;;;;;5059385;28;20052;-35
2022/01/04 00:08:23;;;;;;;1.40;0.80;;;16.40;56.40;;;;;;5041644;28;20082;-35
2022/01/04 00:10:54;;;;;;;1.38;0.80;;;16.50;56.40;;;;;;5059562;28;20023;-35
2022/01/04 00:13:23;;;;;;;1.70;0.80;;;16.40;56.40;;;;;;5058991;28;20045;-35
2022/01/04 00:15:55;;;;;;;1.40;0.75;;;16.40;56.30;;;;;;5063168;28;20036;-37
2022/01/04 00:18:21;;;;;;;2.13;1.10;;;16.50;56.40;;;;;;5044198;28;20017;-38
2022/01/04 00:20:47;;;;;;;1.38;0.70;;;16.50;56.30;;;;;;5061590;28;20013;-38
2022/01/04 00:23:13;;;;;;;1.58;0.70;;;16.50;56.40;;;;;;5059097;28;20098;-37
2022/01/04 00:25:39;;;;;;;1.23;0.82;;;16.40;56.30;;;;;;5058636;28;20060;-39
2022/01/04 00:28:07;;;;;;;1.05;0.80;;;16.50;56.20;;;;;;5058860;28;20028;-38
2022/01/04 00:30:36;;;;;;;1.30;0.90;;;16.50;56.30;;;;;;5056411;28;20017;-37
2022/01/04 00:33:03;;;;;;;1.38;0.70;;;16.50;56.20;;;;;;5055678;28;20045;-37
2022/01/04 00:35:29;;;;;;;1.23;0.70;;;16.50;56.10;;;;;;5055669;28;20029;-35
2022/01/04 00:37:57;;;;;;;1.27;0.80;;;16.50;56.10;;;;;;5055498;28;20032;-35
2022/01/04 00:40:23;;;;;;;1.75;0.80;;;16.50;56.10;;;;;;5055472;28;20075;-35
2022/01/04 00:42:50;;;;;;;1.30;0.70;;;16.50;56.20;;;;;;5055381;28;20032;-35
2022/01/04 00:45:16;;;;;;;1.63;0.80;;;16.50;56.10;;;;;;5055205;28;20028;-35
2022/01/04 00:50:31;;;;;;;1.10;0.80;;;16.50;56.20;;;;;;5008555;28;20513;-35
2022/01/04 00:52:57;;;;;;;1.35;0.88;;;16.50;56.10;;;;;;5037243;28;20025;-35
2022/01/04 00:55:23;;;;;;;1.75;0.90;;;16.50;56.20;;;;;;5054757;28;20072;-35
2022/01/04 00:57:50;;;;;;;1.60;0.82;;;16.50;56.10;;;;;;5055126;28;20025;-35
2022/01/04 01:00:17;;;;;;;0.98;0.60;;;16.50;56.00;;;;;;5055298;28;20010;-35
2022/01/04 01:02:42;;;;;;;2.42;0.95;;;16.50;56.00;;;;;;5054887;28;20021;-35
2022/01/04 01:05:09;;;;;;;1.55;0.95;;;16.50;56.00;;;;;;5054858;28;20026;-35
2022/01/04 01:07:35;;;;;;;1.33;0.80;;;16.50;56.00;;;;;;5054776;28;20074;-35
2022/01/04 01:10:27;;;;;;;2.55;0.80;;;16.50;56.10;;;;;;5055057;28;20021;-35
2022/01/04 01:12:52;;;;;;;1.85;0.70;;;16.50;56.10;;;;;;5054348;28;20387;-35
2022/01/04 01:15:17;;;;;;;1.27;0.73;;;16.50;56.10;;;;;;5054780;28;20100;-35
2022/01/04 01:17:44;;;;;;;2.05;0.90;;;16.50;56.10;;;;;;5054682;28;20474;-35
2022/01/04 01:20:10;;;;;;;2.17;0.80;;;16.50;55.90;;;;;;5055016;28;20017;-35
2022/01/04 01:22:36;;;;;;;1.00;0.65;;;16.50;55.90;;;;;;5055213;28;20036;-35
2022/01/04 01:25:03;;;;;;;1.73;0.80;;;16.50;55.80;;;;;;5037181;28;20017;-35
2022/01/04 01:27:32;;;;;;;1.77;0.80;;;16.50;55.90;;;;;;5054586;28;20027;-35
2022/01/04 01:29:58;;;;;;;1.75;0.90;;;16.50;56.00;;;;;;5054289;28;20052;-35
2022/01/04 01:32:24;;;;;;;1.52;0.70;;;16.50;55.90;;;;;;5054524;28;20100;-35
2022/01/04 01:34:50;;;;;;;1.50;0.90;;;16.50;55.80;;;;;;5054299;28;20029;-35
2022/01/04 01:37:16;;;;;;;1.17;0.70;;;16.50;55.80;;;;;;5054370;28;20025;-35
2022/01/04 01:39:41;;;;;;;0.93;0.63;;;16.60;55.90;;;;;;5054403;28;20079;-35
2022/01/04 01:42:09;;;;;;;1.60;0.93;;;16.60;55.80;;;;;;5036211;28;20096;-35
2022/01/04 01:44:35;;;;;;;0.85;0.65;;;16.60;55.80;;;;;;5053965;28;20025;-35
2022/01/04 01:47:02;;;;;;;1.60;0.85;;;16.60;55.80;;;;;;5054219;28;20020;-35
2022/01/04 01:49:28;;;;;;;1.27;0.73;;;16.60;55.70;;;;;;5053923;28;20021;-35
2022/01/04 01:51:54;;;;;;;1.33;0.70;;;16.60;55.70;;;;;;5036016;28;20017;-35
2022/01/04 01:54:20;;;;;;;1.45;0.80;;;16.60;55.70;;;;;;5053779;28;20115;-35
2022/01/04 01:56:47;;;;;;;1.60;0.80;;;16.60;55.60;;;;;;5053817;28;20009;-35
2022/01/04 01:59:13;;;;;;;1.25;0.80;;;16.60;55.70;;;;;;5054554;28;20017;-35
2022/01/04 02:01:39;;;;;;;1.80;0.68;;;16.60;55.70;;;;;;5055273;28;20158;-36
2022/01/04 02:04:06;;;;;;;1.20;0.73;;;16.60;55.70;;;;;;5055272;28;20021;-36
2022/01/04 02:06:33;;;;;;;1.70;0.82;;;16.60;55.60;;;;;;5055155;28;20020;-36
2022/01/04 02:08:59;;;;;;;1.35;0.70;;;16.60;55.50;;;;;;5054296;28;20030;-35
2022/01/04 02:11:28;;;;;;;0.82;0.60;;;16.60;55.50;;;;;;5055469;28;20063;-36
2022/01/04 02:13:58;;;;;;;1.10;0.60;;;16.60;55.50;;;;;;5054686;28;20035;-36
2022/01/04 02:16:29;;;;;;;0.95;0.57;;;16.70;55.50;;;;;;5053866;28;20080;-36
2022/01/04 02:19:04;;;;;;;1.73;0.70;;;16.60;55.40;;;;;;5053672;28;20071;-37
2022/01/04 02:21:31;;;;;;;1.50;0.60;;;16.60;55.40;;;;;;5053256;28;20014;-37
2022/01/04 02:23:57;;;;;;;1.38;0.70;;;16.60;55.50;;;;;;5053666;28;20025;-39
2022/01/04 02:26:24;;;;;;;1.08;0.60;;;16.60;55.50;;;;;;5053322;28;20025;-37
2022/01/04 02:28:50;;;;;;;1.73;0.90;;;16.60;55.50;;;;;;5053874;28;20028;-37
2022/01/04 02:31:16;;;;;;;0.88;0.70;;;16.60;55.50;;;;;;5036001;28;20025;-37
2022/01/04 02:33:42;;;;;;;0.95;0.65;;;16.60;55.50;;;;;;5054421;28;20029;-37
2022/01/04 02:36:10;;;;;;;2.03;0.73;;;16.60;55.40;;;;;;5054290;28;20092;-39
2022/01/04 02:38:37;;;;;;;1.23;0.70;;;16.60;55.40;;;;;;5054440;28;20025;-38
2022/01/04 02:41:03;;;;;;;1.20;0.70;;;16.60;55.40;;;;;;5054327;28;20013;-39
2022/01/04 02:43:29;;;;;;;0.80;0.70;;;16.60;55.40;;;;;;5053649;28;20017;-38
2022/01/04 02:45:55;;;;;;;1.45;0.70;;;16.60;55.40;;;;;;5019431;28;20032;-39
2022/01/04 02:48:23;;;;;;;1.00;0.60;;;16.70;55.40;;;;;;5053430;28;20028;-38
2022/01/04 02:50:50;;;;;;;1.88;0.95;;;16.60;55.40;;;;;;5052920;28;20024;-38
2022/01/04 02:53:16;;;;;;;1.10;0.70;;;16.60;55.40;;;;;;5053151;28;20025;-38
2022/01/04 02:55:42;;;;;;;1.35;0.70;;;16.60;55.30;;;;;;5052567;28;20084;-38
2022/01/04 02:58:08;;;;;;;0.65;0.63;;;16.60;55.30;;;;;;5053274;28;20045;-39
2022/01/04 03:00:35;;;;;;;1.05;0.68;;;16.60;55.20;;;;;;5035486;28;20013;-40
2022/01/04 03:03:01;;;;;;;1.08;0.70;;;16.70;55.30;;;;;;5035794;28;20017;-40
2022/01/04 03:05:27;;;;;;;1.35;0.90;;;16.70;55.30;;;;;;5019068;28;20049;-39
2022/01/04 03:07:55;;;;;;;0.90;0.60;;;16.70;55.30;;;;;;5053601;28;20021;-40
2022/01/04 03:10:24;;;;;;;1.38;0.80;;;16.70;55.30;;;;;;5035546;28;20040;-40
2022/01/04 03:12:51;;;;;;;0.77;0.60;;;16.60;55.20;;;;;;5052783;28;20480;-40
2022/01/04 03:15:17;;;;;;;1.38;0.80;;;16.70;55.20;;;;;;5052894;28;20021;-37
2022/01/04 03:17:43;;;;;;;2.03;0.73;;;16.70;55.10;;;;;;5052659;28;20023;-36
2022/01/04 03:20:10;;;;;;;1.55;0.80;;;16.70;55.10;;;;;;5052873;28;20029;-36
2022/01/04 03:22:36;;;;;;;1.33;0.70;;;16.70;55.10;;;;;;5055466;28;20013;-35
2022/01/04 03:25:03;;;;;;;1.58;0.80;;;16.70;55.00;;;;;;5057015;28;20013;-35
2022/01/04 03:27:29;;;;;;;1.30;0.80;;;16.70;55.10;;;;;;5056969;28;20041;-35
2022/01/04 03:29:55;;;;;;;1.05;0.80;;;16.70;55.20;;;;;;5057005;28;20021;-35
2022/01/04 03:32:21;;;;;;;1.17;0.80;;;16.70;55.10;;;;;;5056866;28;20069;-35
2022/01/04 03:34:47;;;;;;;0.82;0.70;;;16.70;55.10;;;;;;5056955;28;20472;-35
2022/01/04 03:37:13;;;;;;;1.23;0.80;;;16.70;55.00;;;;;;5056921;28;20013;-35
2022/01/04 03:39:39;;;;;;;0.65;0.60;;;16.70;55.00;;;;;;5056789;28;20028;-35
2022/01/04 03:42:06;;;;;;;0.70;0.55;;;16.70;55.10;;;;;;5056569;28;20025;-35
2022/01/04 03:44:33;;;;;;;1.42;0.60;;;16.70;55.10;;;;;;5057642;28;20021;-36
2022/01/04 03:46:59;;;;;;;0.80;0.63;;;16.70;55.20;;;;;;5057489;28;20024;-36
2022/01/04 03:49:26;;;;;;;0.70;0.60;;;16.70;55.10;;;;;;5058288;28;20100;-36
2022/01/04 03:51:53;;;;;;;1.45;0.90;;;16.70;55.10;;;;;;5058540;28;20026;-36
2022/01/04 03:54:19;;;;;;;1.08;0.70;;;16.70;55.10;;;;;;5058162;28;20056;-35
2022/01/04 03:56:46;;;;;;;0.90;0.65;;;16.70;55.10;;;;;;5058271;28;20534;-36
2022/01/04 03:59:12;;;;;;;1.23;0.80;;;16.70;55.10;;;;;;5057958;28;20017;-35
2022/01/04 04:01:38;;;;;;;1.05;0.80;;;16.60;55.10;;;;;;5058527;28;20067;-36
2022/01/04 04:04:04;;;;;;;1.08;0.60;;;16.70;55.10;;;;;;5058691;28;20029;-36
2022/01/04 04:06:31;;;;;;;0.82;0.60;;;16.70;55.00;;;;;;5058419;28;20028;-36
2022/01/04 04:08:57;;;;;;;1.02;0.82;;;16.70;55.00;;;;;;5040703;28;20066;-36
2022/01/04 04:11:26;;;;;;;1.95;0.90;;;16.70;55.00;;;;;;5058413;28;20028;-36
2022/01/04 04:13:52;;;;;;;1.10;0.70;;;16.70;55.00;;;;;;5059065;28;20029;-36
2022/01/04 04:16:18;;;;;;;1.10;0.80;;;16.70;55.00;;;;;;5058606;28;20459;-35
2022/01/04 04:18:44;;;;;;;1.30;0.80;;;16.70;55.00;;;;;;5059759;28;20089;-36
2022/01/04 04:21:11;;;;;;;1.33;0.95;;;16.70;55.00;;;;;;5041994;28;20041;-36
2022/01/04 04:23:38;;;;;;;1.15;0.93;;;16.70;54.90;;;;;;5059070;28;20017;-36
2022/01/04 04:26:06;;;;;;;1.75;0.70;;;16.70;54.90;;;;;;5059677;28;20017;-35
2022/01/04 04:28:31;;;;;;;1.58;0.70;;;16.70;54.90;;;;;;5059228;28;20048;-35
2022/01/04 04:30:59;;;;;;;1.33;0.80;;;16.70;54.90;;;;;;5056722;28;20009;-35
2022/01/04 04:33:25;;;;;;;1.00;0.80;;;16.70;54.90;;;;;;5055418;28;20048;-35
2022/01/04 04:35:50;;;;;;;0.95;0.80;;;16.70;54.90;;;;;;5055912;28;20033;-35
2022/01/04 04:38:19;;;;;;;1.00;0.73;;;16.70;54.80;;;;;;5056267;28;20021;-35
2022/01/04 04:40:45;;;;;;;2.17;0.90;;;16.70;54.90;;;;;;5055868;28;20009;-35
2022/01/04 04:43:11;;;;;;;1.48;0.82;;;16.70;54.80;;;;;;5056306;28;20016;-35
2022/01/04 04:45:37;;;;;;;0.90;0.70;;;16.70;54.80;;;;;;5024618;28;20021;-37
2022/01/04 04:48:03;;;;;;;1.13;0.80;;;16.70;54.80;;;;;;5060925;28;20029;-37
2022/01/04 04:50:29;;;;;;;1.00;0.70;;;16.70;54.80;;;;;;5061013;28;20501;-36
2022/01/04 04:52:57;;;;;;;1.20;0.80;;;16.70;54.80;;;;;;5060898;28;20100;-36
2022/01/04 04:55:23;;;;;;;1.00;0.70;;;16.70;54.80;;;;;;5060108;28;20041;-36
2022/01/04 04:57:48;;;;;;;0.90;0.70;;;16.70;54.80;;;;;;5060775;28;20029;-39
2022/01/04 05:00:14;;;;;;;1.02;0.80;;;16.80;54.80;;;;;;5055454;28;20017;-37
2022/01/04 05:02:41;;;;;;;1.00;0.70;;;16.70;54.80;;;;;;5055458;28;20021;-37
2022/01/04 05:05:07;;;;;;;1.10;0.80;;;16.70;54.80;;;;;;5054916;28;20064;-37
2022/01/04 05:07:34;;;;;;;1.33;0.85;;;16.70;54.80;;;;;;5055218;28;20021;-37
2022/01/04 05:10:03;;;;;;;1.17;0.80;;;16.70;54.80;;;;;;5055212;28;20024;-37
2022/01/04 05:12:29;;;;;;;1.05;0.77;;;16.70;54.70;;;;;;5055356;28;20024;-37
2022/01/04 05:14:55;;;;;;;0.80;0.80;;;16.70;54.80;;;;;;5059617;28;20028;-40
2022/01/04 05:17:21;;;;;;;0.95;0.80;;;16.80;54.70;;;;;;5059229;28;20066;-40
2022/01/04 05:19:47;;;;;;;1.17;1.00;;;16.80;54.70;;;;;;5059090;28;20542;-42
2022/01/04 05:22:14;;;;;;;1.13;0.80;;;16.80;54.70;;;;;;5059170;28;20023;-40
2022/01/04 05:24:40;;;;;;;0.98;0.65;;;16.80;54.70;;;;;;5059845;28;20021;-41
2022/01/04 05:27:09;;;;;;;1.23;0.90;;;16.80;54.70;;;;;;5059393;28;20033;-42
2022/01/04 05:29:35;;;;;;;0.90;0.70;;;16.80;54.70;;;;;;5056088;28;20038;-38
2022/01/04 05:32:01;;;;;;;1.17;0.75;;;16.70;54.60;;;;;;5054274;28;20082;-38
2022/01/04 05:34:27;;;;;;;1.23;0.77;;;16.70;54.60;;;;;;5054545;28;20033;-38
2022/01/04 05:36:54;;;;;;;1.75;1.00;;;16.80;54.70;;;;;;5054614;28;20036;-39
2022/01/04 05:39:20;;;;;;;1.23;0.80;;;16.80;54.70;;;;;;5036728;28;20427;-39
2022/01/04 05:41:46;;;;;;;0.95;0.80;;;16.80;54.80;;;;;;5054267;28;20021;-39
2022/01/04 05:44:12;;;;;;;1.00;0.90;;;16.70;54.60;;;;;;5053253;28;20538;-40
2022/01/04 05:46:38;;;;;;;1.35;0.90;;;16.70;54.70;;;;;;5054327;28;20033;-40
2022/01/04 05:49:04;;;;;;;1.40;0.85;;;16.70;55.20;;;;;;5054355;28;20029;-40
2022/01/04 05:51:30;;;;;;;1.60;0.85;;;16.70;54.60;;;;;;5054452;28;20073;-40
2022/01/04 05:53:56;;;;;;;0.93;0.73;;;16.80;54.60;;;;;;5053846;28;20032;-39
2022/01/04 05:56:23;;;;;;;1.20;0.90;;;16.70;54.60;;;;;;5054114;28;20060;-35
2022/01/04 05:58:49;;;;;;;1.55;0.95;;;16.80;54.70;;;;;;5056676;28;20038;-36
2022/01/04 06:01:15;;;;;;;0.90;0.70;;;16.80;54.60;;;;;;5043551;28;20095;-36
2022/01/04 06:03:44;;;;;;;1.15;0.75;;;16.80;54.60;;;;;;5061238;28;20096;-36
2022/01/04 06:06:10;;;;;;;1.75;1.10;;;16.80;54.60;;;;;;5060892;28;20499;-36
2022/01/04 06:08:38;;;;;;;1.50;1.00;;;16.80;54.50;;;;;;5060939;28;20021;-36
2022/01/04 06:11:03;;;;;;;1.05;0.80;;;16.70;54.60;;;;;;5043482;28;20021;-36
2022/01/04 06:16:14;;;;;;;1.30;0.90;;;16.70;54.60;;;;;;5055997;28;20391;-36
2022/01/04 06:18:42;;;;;;;1.48;1.00;;;16.70;54.60;;;;;;5056023;28;20020;-36
2022/01/04 06:21:09;;;;;;;1.25;0.90;;;16.70;54.60;;;;;;5055319;28;20025;-35
2022/01/04 06:23:34;;;;;;;2.00;1.25;;;16.60;55.20;;;;;;5056419;28;20017;-36
2022/01/04 06:26:01;;;;;;;1.75;0.90;;;16.70;54.80;;;;;;5060804;28;20017;-36
2022/01/04 06:28:26;;;;;;;1.10;1.00;;;16.60;54.90;;;;;;5059375;28;20493;-35
2022/01/04 06:30:52;;;;;;;1.77;1.20;;;16.60;55.00;;;;;;5053916;28;20006;-35
2022/01/04 06:33:21;;;;;;;1.50;1.10;;;16.60;55.00;;;;;;5036599;28;20544;-35
2022/01/04 06:35:48;;;;;;;1.73;0.90;;;16.50;55.00;;;;;;5054300;28;20033;-37
2022/01/04 06:38:14;;;;;;;1.60;1.08;;;16.50;55.10;;;;;;5054645;28;20013;-38
2022/01/04 06:40:41;;;;;;;1.42;1.10;;;16.50;55.20;;;;;;5054673;28;20009;-38
2022/01/04 06:43:07;;;;;;;1.35;1.15;;;16.50;55.20;;;;;;5054499;28;20021;-38
2022/01/04 06:45:33;;;;;;;1.65;1.08;;;16.50;55.20;;;;;;5055826;28;20043;-39
2022/01/04 06:47:59;;;;;;;1.55;1.08;;;16.40;55.80;;;;;;5061177;28;20025;-39
2022/01/04 06:50:25;;;;;;;1.08;0.98;;;16.40;55.40;;;;;;5059856;28;20076;-39
2022/01/04 06:52:51;;;;;;;0.98;0.93;;;16.40;55.40;;;;;;5041220;28;20028;-40
2022/01/04 06:55:17;;;;;;;1.40;1.10;;;16.30;55.50;;;;;;5057990;28;20048;-42
2022/01/04 06:57:43;;;;;;;1.13;1.00;;;16.30;55.60;;;;;;5058647;28;20013;-35
2022/01/04 07:00:10;;;;;;;1.35;1.10;;;16.30;55.60;;;;;;5057232;28;20028;-38
2022/01/04 07:02:37;;;;;;;1.80;1.20;;;16.30;55.70;;;;;;5059247;28;20028;-38
2022/01/04 07:05:04;;;;;;;1.63;1.05;;;16.30;55.80;;;;;;5058795;28;20064;-37
2022/01/04 07:07:31;;;;;;;1.77;1.20;;;16.20;55.70;;;;;;5039979;28;20041;-37
2022/01/04 07:09:57;;;;;;;1.58;1.25;;;16.20;55.80;;;;;;5058254;28;20234;-37
2022/01/04 07:12:23;;;;;;;1.80;1.30;;;16.20;55.80;;;;;;5056711;28;20017;-37
2022/01/04 07:14:48;;;;;;;2.95;1.42;;;16.20;55.90;;;;;;5059669;28;20021;-38
2022/01/04 07:17:14;;;;;;;2.08;1.40;;;16.20;56.00;;;;;;5059083;28;20051;-39
2022/01/04 07:19:40;;;;;;;1.73;1.20;;;16.10;56.00;;;;;;5057122;28;20503;-40
2022/01/04 07:22:06;;;;;;;2.15;1.30;;;16.10;56.20;;;;;;5056990;28;20048;-39
2022/01/04 07:24:32;;;;;;;2.75;1.42;;;16.10;56.20;;;;;;5057104;28;20017;-40
2022/01/04 07:26:58;;;;;;;1.73;1.10;;;16.10;56.30;;;;;;5056875;28;20523;-39
2022/01/04 07:29:24;;;;;;;1.55;1.00;;;16.10;56.30;;;;;;5057959;28;20136;-41
2022/01/04 07:31:51;;;;;;;1.90;1.33;;;16.10;56.30;;;;;;5058263;28;20067;-40
2022/01/04 07:34:17;;;;;;;1.92;1.33;;;16.00;56.30;;;;;;5040520;28;20036;-40
2022/01/04 07:36:43;;;;;;;1.77;1.38;;;16.00;56.40;;;;;;5057265;28;20014;-37
2022/01/04 07:39:08;;;;;;;2.25;1.20;;;16.00;57.00;;;;;;5058376;28;20021;-37
2022/01/04 07:41:35;;;;;;;2.00;1.35;;;16.00;56.50;;;;;;5041086;28;20021;-37
2022/01/04 07:44:01;;;;;;;1.70;1.23;;;16.00;56.60;;;;;;5041540;28;20047;-37
2022/01/04 07:46:28;;;;;;;2.90;1.38;;;16.00;56.60;;;;;;5059599;28;20025;-37
2022/01/04 07:48:54;;;;;;;1.75;1.40;;;15.90;57.20;;;;;;5042369;28;20166;-37
2022/01/04 07:51:20;;;;;;;2.42;1.40;;;15.90;56.70;;;;;;5042862;28;20094;-38
2022/01/04 07:53:46;;;;;;;1.80;1.38;;;15.90;56.80;;;;;;5042153;28;20036;-37
2022/01/04 07:56:12;;;;;;;2.20;1.45;;;15.90;56.80;;;;;;5042259;28;20053;-39
2022/01/04 07:58:38;;;;;;;2.00;1.40;;;15.90;56.90;;;;;;5040767;28;20453;-39
2022/01/04 08:01:04;;;;;;;2.17;1.50;;;15.90;56.90;;;;;;5057940;28;20365;-40
2022/01/04 08:03:29;;;;;;;2.17;1.33;;;15.90;57.00;;;;;;5058005;28;20056;-41
2022/01/04 08:05:56;;;;;;;2.13;1.60;;;15.80;57.00;;;;;;5059299;28;20025;-39
2022/01/04 08:08:21;;;;;;;1.73;1.20;;;15.80;57.10;;;;;;5062523;28;20092;-39
2022/01/04 08:10:50;;;;;;;2.90;1.70;;;15.80;57.10;;;;;;5044724;28;20017;-40
2022/01/04 08:13:19;;;;;;;3.33;1.63;;;15.80;57.20;;;;;;5027136;28;20025;-40
2022/01/04 08:15:46;;;;;;;3.15;1.70;;;15.70;57.20;;;;;;5060690;28;20125;-43
2022/01/04 08:18:12;;;;;;;1.88;1.48;;;15.70;57.40;;;;;;5060555;28;20009;-41
2022/01/04 08:20:38;;;;;;;4.03;1.55;;;15.70;57.50;;;;;;5060719;28;20108;-40
2022/01/04 08:23:04;;;;;;;3.80;2.00;;;15.70;57.40;;;;;;5043829;28;20033;-41
2022/01/04 08:25:30;;;;;;;3.35;1.95;;;15.70;57.50;;;;;;5061787;28;20024;-42
2022/01/04 08:27:56;;;;;;;4.57;2.10;;;15.70;57.50;;;;;;5062130;28;20039;-40
2022/01/04 08:30:23;;;;;;;3.38;1.77;;;15.70;57.50;;;;;;5059963;28;20080;-40
2022/01/04 08:32:50;;;;;;;3.17;1.98;;;15.70;57.50;;;;;;5059208;28;20471;-40
2022/01/04 08:35:16;;;;;;;3.83;2.20;;;15.70;57.60;;;;;;5040137;28;20033;-40
2022/01/04 08:37:42;;;;;;;4.53;1.85;;;15.70;57.70;;;;;;5041304;28;20021;-45
2022/01/04 08:40:09;;;;;;;3.30;2.10;;;15.70;57.70;;;;;;5060157;28;20024;-43
2022/01/04 08:42:35;;;;;;;5.55;2.05;;;15.60;57.80;;;;;;5041278;28;20025;-41
2022/01/04 08:45:01;;;;;;;5.15;2.20;;;15.60;57.80;;;;;;5061376;28;20063;-42
2022/01/04 08:47:27;;;;;;;4.20;2.30;;;15.60;57.90;;;;;;5026975;28;20025;-45
2022/01/04 08:49:53;;;;;;;6.28;2.30;;;15.50;57.90;;;;;;5061598;28;20021;-40
2022/01/04 08:52:20;;;;;;;5.63;2.05;;;15.50;58.00;;;;;;5026843;28;20060;-43
2022/01/04 08:54:47;;;;;;;4.13;1.90;;;15.60;58.00;;;;;;5043411;28;20040;-43
2022/01/04 08:57:13;;;;;;;6.85;2.22;;;15.60;58.00;;;;;;5043003;28;20021;-36
2022/01/04 08:59:38;;;;;;;3.85;2.42;;;15.50;58.10;;;;;;5008444;28;20163;-36
2022/01/04 09:02:05;;;;;;;4.40;2.33;;;15.60;58.10;;;;;;5041124;28;20024;-37
2022/01/04 09:04:31;;;;;;;4.22;2.70;;;15.50;58.10;;;;;;5058590;28;20521;-36
2022/01/04 09:06:56;;;;;;;5.43;2.47;;;15.50;58.10;;;;;;5057967;28;20017;-36
2022/01/04 09:09:22;;;;;;;7.00;2.22;;;15.50;58.20;;;;;;5058003;28;20025;-36
2022/01/04 09:11:48;;;;;;;8.20;2.42;;;15.50;58.20;;;;;;5057053;28;20108;-36
2022/01/04 09:15:28;;;;;;;7.22;3.03;;;15.50;58.30;;;;;;5056247;28;20024;-36
2022/01/04 09:19:54;;;;;;;5.60;2.47;;;15.50;58.40;;;;;;5039950;28;20467;-36
2022/01/04 09:22:21;;;;;;;3.95;2.33;;;15.50;58.40;;;;;;5055205;28;20009;-36
2022/01/04 09:24:47;;;;;;;6.43;2.90;;;15.50;58.40;;;;;;5055030;28;20091;-35
2022/01/04 09:27:13;;;;;;;5.47;2.40;;;15.40;58.40;;;;;;5055142;28;20037;-36
2022/01/04 09:29:41;;;;;;;4.75;2.67;;;15.40;58.50;;;;;;5054901;28;20399;-36
2022/01/04 09:32:13;;;;;;;7.28;2.63;;;15.40;58.50;;;;;;5055344;28;20039;-36
2022/01/04 09:34:39;;;;;;;4.30;2.40;;;15.40;58.50;;;;;;5055327;28;20101;-35
2022/01/04 09:37:05;;;;;;;4.50;2.50;;;15.40;58.50;;;;;;5054913;28;20013;-36
2022/01/04 09:39:31;;;;;;;4.97;2.92;;;15.40;58.50;;;;;;5055182;28;20063;-35
2022/01/04 09:41:59;;;;;;;4.90;2.30;;;15.40;58.50;;;;;;5054832;28;20395;-36
2022/01/04 09:44:25;;;;;;;5.18;2.65;;;15.40;58.50;;;;;;5055315;28;20024;-36
2022/01/04 09:46:51;;;;;;;3.47;2.58;;;15.40;58.60;;;;;;5055199;28;20017;-36
2022/01/04 09:49:17;;;;;;;4.80;2.40;;;15.30;58.50;;;;;;5037379;28;20028;-36
2022/01/04 09:51:44;;;;;;;4.60;2.50;;;15.40;58.60;;;;;;5036776;28;20099;-36
2022/01/04 09:54:09;;;;;;;3.75;2.70;;;15.40;58.60;;;;;;5054068;28;20108;-35
2022/01/04 09:56:36;;;;;;;8.93;3.17;;;15.40;58.60;;;;;;5054210;28;20079;-38
2022/01/04 09:59:01;;;;;;;5.65;2.55;;;15.30;58.60;;;;;;5054278;28;20460;-38
2022/01/04 10:01:35;;;;;;;5.43;2.70;;;15.30;58.60;;;;;;5053762;28;20066;-38
2022/01/04 10:04:02;;;;;;;5.20;2.72;;;15.40;58.60;;;;;;5036612;28;20071;-38
2022/01/04 10:06:29;;;;;;;6.45;2.83;;;15.40;58.70;;;;;;5053958;28;20029;-38
2022/01/04 10:09:03;;;;;;;3.90;2.65;;;15.30;58.60;;;;;;5035881;28;20544;-38
2022/01/04 10:11:47;;;;;;;5.35;3.03;;;15.40;58.70;;;;;;5053727;28;20032;-38
2022/01/04 10:14:27;;;;;;;4.07;2.75;;;15.40;58.60;;;;;;5036903;28;20021;-38
2022/01/04 10:16:57;;;;;;;;;;;15.40;58.70;;;;;;5054982;28;20013;-39
2022/01/04 10:19:32;;;;;;;4.18;2.70;;;15.30;58.70;;;;;;5054252;28;20383;-39
2022/01/04 10:22:27;;;;;;;4.30;2.95;;;15.30;58.70;;;;;;5054424;28;20017;-40
2022/01/04 10:25:02;;;;;;;6.63;2.95;;;15.30;58.70;;;;;;5054073;28;20015;-39
2022/01/04 10:27:29;;;;;;;3.95;2.90;;;15.30;58.70;;;;;;5054036;28;20025;-39
2022/01/04 10:30:23;;;;;;;5.13;2.70;;;15.30;58.70;;;;;;5053408;28;20016;-39
2022/01/04 10:33:08;;;;;;;5.43;2.92;;;15.30;58.70;;;;;;5053350;28;20021;-39
2022/01/04 10:35:46;;;;;;;4.72;2.80;;;15.30;58.70;;;;;;5053483;28;20032;-40
2022/01/04 10:38:20;;;;;;;5.05;2.78;;;15.30;58.70;;;;;;5053332;28;20063;-40
2022/01/04 10:40:51;;;;;;;5.25;2.97;;;15.30;58.70;;;;;;5035603;28;20024;-41
2022/01/04 10:43:21;;;;;;;5.05;2.90;;;15.30;58.70;;;;;;5053067;28;20025;-42
2022/01/04 10:45:49;;;;;;;5.72;3.03;;;15.30;58.70;;;;;;5053579;28;20051;-40
2022/01/04 10:48:22;;;;;;;4.32;2.92;;;15.30;58.70;;;;;;5053213;28;20491;-40
2022/01/04 10:50:52;;;;;;;5.95;2.80;;;15.30;58.70;;;;;;5035386;28;20104;-41
2022/01/04 10:53:27;;;;;;;4.70;3.10;;;15.30;58.70;;;;;;5053077;28;20021;-41
2022/01/04 10:55:59;;;;;;;5.97;2.97;;;15.30;58.70;;;;;;5052990;28;20056;-40
2022/01/04 10:58:32;;;;;;;6.80;2.92;;;15.30;58.70;;;;;;5053611;28;20074;-40
2022/01/04 11:01:07;;;;;;;5.95;3.00;;;15.30;58.70;;;;;;5052847;28;20047;-41
2022/01/04 11:03:34;;;;;;;5.57;3.17;;;15.30;58.70;;;;;;5052730;28;20460;-40
2022/01/04 11:06:05;;;;;;;5.30;3.35;;;15.30;58.70;;;;;;5053300;28;20013;-41
2022/01/04 11:08:31;;;;;;;4.35;2.92;;;15.30;58.70;;;;;;5052829;28;20494;-40
2022/01/04 11:10:58;;;;;;;6.93;3.33;;;15.30;58.70;;;;;;5052986;28;20032;-40
2022/01/04 11:13:24;;;;;;;5.68;3.13;;;15.30;58.70;;;;;;5034986;28;20021;-40
2022/01/04 11:15:51;;;;;;;4.78;3.13;;;15.30;58.70;;;;;;5052895;28;20021;-40
2022/01/04 11:18:16;;;;;;;5.35;3.20;;;15.30;58.70;;;;;;5035060;28;20032;-41
2022/01/04 11:20:42;;;;;;;6.90;3.30;;;15.30;58.70;;;;;;5052920;28;20009;-40
2022/01/04 11:23:09;;;;;;;5.60;3.17;;;15.30;58.70;;;;;;5034998;28;20481;-40
2022/01/04 11:25:35;;;;;;;5.40;3.13;;;15.30;58.70;;;;;;5052806;28;20074;-40
2022/01/04 11:28:01;;;;;;;5.65;3.28;;;15.30;58.70;;;;;;5034788;28;20427;-40
2022/01/04 11:30:56;;;;;;;6.95;3.63;;;15.30;58.70;;;;;;5037669;28;20025;-40
2022/01/04 11:33:52;;;;;;;7.07;3.67;;;15.30;58.70;;;;;;5039525;28;20021;-45
2022/01/04 11:36:18;;;;;;;4.68;3.30;;;15.20;58.80;;;;;;5040465;28;20044;-37
2022/01/04 11:38:44;;;;;;;5.40;3.00;;;15.20;58.80;;;;;;5054043;28;20013;-37
2022/01/04 11:41:19;;;;;;;6.63;3.20;;;15.30;58.90;;;;;;5018917;28;20018;-36
2022/01/04 11:43:45;;;;;;;7.10;3.25;;;15.30;58.90;;;;;;5040315;28;20013;-36
2022/01/04 11:46:11;;;;;;;4.72;3.40;;;15.20;58.90;;;;;;5038672;28;20440;-36
2022/01/04 11:48:39;;;;;;;8.52;3.15;;;15.30;58.90;;;;;;5006560;28;20032;-35
2022/01/04 11:51:27;;;;;;;8.07;3.55;;;15.20;58.80;;;;;;5057364;28;20009;-36
2022/01/04 11:54:16;;;;;;;6.32;3.47;;;15.20;58.90;;;;;;5038994;28;20021;-36
2022/01/04 11:56:58;;;;;;;6.53;3.53;;;15.30;59.00;;;;;;5017135;28;20072;-35
2022/01/04 11:59:45;;;;;;;6.68;3.30;;;15.30;59.00;;;;;;5016983;28;20097;-35
2022/01/04 12:02:31;;;;;;;5.50;3.35;;;15.20;58.90;;;;;;5017043;28;20010;-37
2022/01/04 12:04:58;;;;;;;4.95;3.13;;;15.20;59.00;;;;;;5016024;28;20014;-35
2022/01/04 12:07:41;;;;;;;11.02;3.30;;;15.20;58.90;;;;;;5015922;28;20030;-36
2022/01/04 12:10:27;;;;;;;5.55;3.55;;;15.30;58.90;;;;;;5016858;28;20084;-36
2022/01/04 12:12:56;;;;;;;6.95;3.55;;;15.30;58.90;;;;;;5006701;28;20046;-37
2022/01/04 12:15:34;;;;;;;6.85;3.33;;;15.20;58.90;;;;;;5017023;28;20034;-35
2022/01/04 12:18:00;;;;;;;6.68;3.40;;;15.20;59.00;;;;;;5016739;28;20021;-35
2022/01/04 12:20:48;;;;;;;4.78;3.30;;;15.20;59.00;;;;;;5016373;28;20473;-35
2022/01/04 12:23:25;;;;;;;5.05;3.47;;;15.20;59.00;;;;;;5016875;28;20018;-35
2022/01/04 12:28:33;;;;;;;9.13;4.22;;;15.20;59.00;;;;;;5016542;28;20171;-38
2022/01/04 12:31:18;;;;;;;6.88;3.75;;;15.20;59.00;;;;;;5017571;28;20021;-41
2022/01/04 12:33:46;;;;;;;6.30;3.33;;;15.20;59.00;;;;;;5016816;28;20473;-38
2022/01/04 12:36:33;;;;;;;5.68;3.40;;;15.20;59.00;;;;;;5016358;28;20018;-38
2022/01/04 12:39:07;;;;;;;7.53;3.85;;;15.20;59.00;;;;;;5016575;28;20033;-42
2022/01/04 12:41:35;;;;;;;6.20;3.40;;;15.20;59.00;;;;;;5015182;28;20014;-48
2022/01/04 12:44:01;;;;;;;4.72;3.40;;;15.20;59.10;;;;;;5016561;28;20014;-35
2022/01/04 12:46:30;;;;;;;7.18;3.42;;;15.20;59.00;;;;;;5016077;28;20380;-36
2022/01/04 12:48:59;;;;;;;7.10;3.47;;;15.20;59.10;;;;;;5016289;28;20010;-36
2022/01/04 12:51:37;;;;;;;6.75;3.83;;;15.20;59.10;;;;;;5014783;28;20404;-38
2022/01/04 12:54:06;;;;;;;6.20;3.22;;;15.20;59.00;;;;;;5016878;28;20010;-37
2022/01/04 12:56:33;;;;;;;7.43;3.83;;;15.20;59.00;;;;;;5055629;28;20021;-37
2022/01/04 12:58:59;;;;;;;8.80;3.45;;;15.20;59.00;;;;;;5038287;28;20013;-37
2022/01/04 13:01:29;;;;;;;8.13;3.60;;;15.20;59.00;;;;;;5038472;28;20020;-37
2022/01/04 13:03:56;;;;;;;8.60;3.55;;;15.20;59.00;;;;;;5055666;28;20414;-36